KCDH/CDH METAR and TAF weather

Enter ICAO airport designator
Station Type Date Time Source
KCDH METAR 2021/04/14 20:15 UTC NOAA

KCDH 142015Z AUTO 02008KT 1 3/4SM -DZ SCT005 BKN013 13/13 A3011 RMK AO2


Station Type Date Time Source
KCDH Decoded METAR 2021/04/14 20:15 UTC NOAA

Camden / Harrell Field, AR, United States (KCDH) 33-37N 092-46W
Apr 14, 2021 - 04:15 PM EDT / 2021.04.14 2015 UTC
Wind: from the NNE (020 degrees) at 9 MPH (8 KT):0
Visibility: 1 3/4 mile(s):0
Sky conditions: mostly cloudy
Weather: light drizzle
Temperature: 55 F (13 C)
Dew Point: 55 F (13 C)
Relative Humidity: 100%
Pressure (altimeter): 30.11 in. Hg (1019 hPa)
ob: KCDH 142015Z AUTO 02008KT 1 3/4SM -DZ SCT005 BKN013 13/13 A3011 RMK AO2
cycle: 20

Station Type Date Time Source
KCDH TAF UTC NOAA

Error!

Example: see airport list